Harmony, Louisiana
Current Conditions -  °F | °C
As of 6:35 AM on Sunday 21 Dec 2014 (Local Time) from KIER Reporting Station
Haze Haze  
Wind Chill: 34°   Ceiling: 100
Heat Index: 34°   Visibility: 4mi
Dew Point: 34°   Wind: 3mph
Humidity: 100%   Direction: 310°NW
Pressure: 30.16"   Gusts: NA
Location:  31.8112°N, 93.3051°W
Report Text: KIER 211235Z AUTO 31003KT 4SM BR OVC001 01/01 A3016 RMK AO2 T00100010
Loading
Personal Weather Stations






























Interactive Weather Map New forecast layout! Learn more

10-Day Weather Forecast

Advertisements
Track Severe Weather on mobile